createdAt,value
2017-10-23T00:00:02.762Z,0
2017-10-23T00:05:03.434Z,0
2017-10-23T00:10:02.879Z,0
2017-10-23T00:15:03.305Z,0
2017-10-23T00:20:02.775Z,0
2017-10-23T00:25:03.267Z,0
2017-10-23T00:30:02.676Z,0
2017-10-23T00:35:03.111Z,0
2017-10-23T00:40:02.669Z,0
2017-10-23T00:45:03.228Z,0
2017-10-23T00:50:02.741Z,0
2017-10-23T00:55:03.154Z,0
2017-10-23T01:00:02.542Z,0
2017-10-23T01:05:02.964Z,0
2017-10-23T01:10:02.459Z,0
2017-10-23T01:15:03.014Z,0
2017-10-23T01:20:02.657Z,0
2017-10-23T01:25:03.202Z,0
2017-10-23T01:30:02.770Z,0
2017-10-23T01:35:03.420Z,0
2017-10-23T01:40:03.086Z,0
2017-10-23T01:45:02.569Z,0
2017-10-23T01:50:03.220Z,0
2017-10-23T01:55:02.784Z,0
2017-10-23T02:00:03.242Z,0
2017-10-23T02:05:02.653Z,0
2017-10-23T02:10:03.436Z,0
2017-10-23T02:15:02.941Z,0
2017-10-23T02:20:03.428Z,0
2017-10-23T02:25:02.852Z,0
2017-10-23T02:30:02.498Z,0
2017-10-23T02:35:02.920Z,0
2017-10-23T02:40:02.480Z,0
2017-10-23T02:45:02.919Z,0
2017-10-23T02:50:02.699Z,0
2017-10-23T02:55:03.220Z,0
2017-10-23T03:00:02.683Z,0
2017-10-23T03:05:03.180Z,0
2017-10-23T03:10:02.666Z,0
2017-10-23T03:15:03.108Z,0
2017-10-23T03:20:02.683Z,0
2017-10-23T03:25:03.140Z,0
2017-10-23T03:30:02.620Z,0
2017-10-23T03:35:03.253Z,0
2017-10-23T03:40:02.766Z,0
2017-10-23T03:45:03.313Z,0
2017-10-23T03:50:02.661Z,0
2017-10-23T03:55:03.236Z,0
2017-10-23T04:00:02.724Z,0
2017-10-23T04:05:03.136Z,0
2017-10-23T04:10:02.726Z,0
2017-10-23T04:15:03.250Z,0
2017-10-23T04:20:02.706Z,0
2017-10-23T04:25:03.297Z,0
2017-10-23T04:30:02.820Z,0
2017-10-23T04:35:03.272Z,0
2017-10-23T04:40:02.918Z,0
2017-10-23T04:45:03.276Z,0
2017-10-23T04:50:02.724Z,0
2017-10-23T04:55:03.220Z,0
2017-10-23T05:00:02.831Z,0
2017-10-23T05:05:03.395Z,0
2017-10-23T05:10:02.908Z,0
2017-10-23T05:15:03.417Z,0
2017-10-23T05:20:02.883Z,0
2017-10-23T05:25:03.376Z,0
2017-10-23T05:30:02.902Z,0
2017-10-23T05:35:02.453Z,0
2017-10-23T05:40:02.979Z,0
2017-10-23T05:45:02.520Z,1
2017-10-23T05:50:03.150Z,8
2017-10-23T05:55:02.675Z,19
2017-10-23T06:00:03.325Z,40
2017-10-23T06:05:02.828Z,54
2017-10-23T06:10:02.503Z,64
2017-10-23T06:15:03.100Z,92
2017-10-23T06:20:02.739Z,122
2017-10-23T06:25:03.323Z,173
2017-10-23T06:30:02.816Z,282
2017-10-23T06:35:02.477Z,543
2017-10-23T06:40:03.066Z,516
2017-10-23T06:45:02.665Z,535
2017-10-23T06:50:03.197Z,653
2017-10-23T06:55:02.611Z,719
2017-10-23T07:00:03.155Z,826
2017-10-23T07:05:02.762Z,851
2017-10-23T07:10:03.362Z,1000
2017-10-23T07:15:02.793Z,1000
2017-10-23T07:20:03.385Z,1000
2017-10-23T07:25:02.967Z,1000
2017-10-23T07:30:02.726Z,1000
2017-10-23T07:35:03.295Z,1000
2017-10-23T07:40:02.900Z,2000
2017-10-23T07:45:03.434Z,1000
2017-10-23T07:50:02.832Z,1000
2017-10-23T07:55:03.326Z,1000
2017-10-23T08:00:02.800Z,1000
2017-10-23T08:05:03.238Z,1000
2017-10-23T08:10:02.783Z,1000
2017-10-23T08:15:03.273Z,2000
2017-10-23T08:20:02.899Z,1000
2017-10-23T08:25:03.406Z,1000
2017-10-23T08:30:02.840Z,1000
2017-10-23T08:35:02.473Z,2000
2017-10-23T08:40:02.994Z,2000
2017-10-23T08:45:03.430Z,1000
2017-10-23T08:50:03.043Z,1000
2017-10-23T08:55:02.487Z,2000
2017-10-23T09:00:03.093Z,2000
2017-10-23T09:05:02.544Z,3000
2017-10-23T09:10:03.012Z,4000
2017-10-23T09:15:02.468Z,5000
2017-10-23T09:20:02.986Z,4000
2017-10-23T09:25:02.572Z,5000
2017-10-23T09:30:03.161Z,5000
2017-10-23T09:35:02.641Z,8000
2017-10-23T09:40:03.261Z,33000
2017-10-23T09:45:02.816Z,6000
2017-10-23T09:50:03.419Z,6000
2017-10-23T09:55:02.997Z,6000
2017-10-23T10:00:02.506Z,4000
2017-10-23T10:05:03.019Z,4000
2017-10-23T10:10:02.707Z,4000
2017-10-23T10:15:03.277Z,3000
2017-10-23T10:20:02.691Z,4000
2017-10-23T10:25:03.231Z,7000
2017-10-23T10:30:02.774Z,7000
2017-10-23T10:35:03.196Z,8000
2017-10-23T10:40:02.816Z,20000
2017-10-23T10:45:03.225Z,9000
2017-10-23T10:50:02.856Z,8000
2017-10-23T10:55:03.456Z,6000
2017-10-23T11:00:02.893Z,5000
2017-10-23T11:05:02.496Z,4000
2017-10-23T11:10:03.061Z,4000
2017-10-23T11:15:02.636Z,6000
2017-10-23T11:20:03.107Z,9000
2017-10-23T11:25:02.573Z,9000
2017-10-23T11:30:02.978Z,7000
2017-10-23T11:35:02.595Z,7000
2017-10-23T11:40:03.145Z,9000
2017-10-23T11:45:02.699Z,11000
2017-10-23T11:50:03.298Z,6000
2017-10-23T11:55:02.740Z,4000
2017-10-23T12:00:03.352Z,6000
2017-10-23T12:05:03.121Z,7000
2017-10-23T12:10:02.716Z,7000
2017-10-23T12:15:03.197Z,11000
2017-10-23T12:20:02.714Z,12000
2017-10-23T12:25:03.263Z,23000
2017-10-23T12:30:02.781Z,15000
2017-10-23T12:35:03.171Z,12000
2017-10-23T12:40:03.051Z,6000
2017-10-23T12:45:02.640Z,6000
2017-10-23T12:50:03.145Z,6000
2017-10-23T12:55:02.690Z,5000
2017-10-23T13:00:03.109Z,5000
2017-10-23T13:05:02.606Z,5000
2017-10-23T13:10:03.183Z,5000
2017-10-23T13:15:02.750Z,7000
2017-10-23T13:20:03.172Z,6000
2017-10-23T13:25:02.696Z,5000
2017-10-23T13:30:03.131Z,4000
2017-10-23T13:35:03.413Z,27000
2017-10-23T13:40:02.957Z,22000
2017-10-23T13:45:03.346Z,5000
2017-10-23T13:50:02.955Z,4000
2017-10-23T13:55:03.395Z,4000
2017-10-23T14:00:02.960Z,4000
2017-10-23T14:05:02.448Z,5000
2017-10-23T14:10:03.029Z,5000
2017-10-23T14:15:02.596Z,2000
2017-10-23T14:20:03.136Z,3000
2017-10-23T14:25:02.630Z,4000
2017-10-23T14:30:03.220Z,1000
2017-10-23T14:35:02.797Z,1000
2017-10-23T14:40:03.472Z,1000
2017-10-23T14:45:02.901Z,1000
2017-10-23T14:50:03.353Z,2000
2017-10-23T15:05:03.231Z,1000
2017-10-23T15:10:02.781Z,10000
2017-10-23T15:15:03.422Z,3000
2017-10-23T15:20:02.838Z,7000
2017-10-23T15:25:03.327Z,7000
2017-10-23T15:30:02.724Z,9000
2017-10-23T15:35:03.347Z,2000
2017-10-23T15:40:02.803Z,1000
2017-10-23T15:45:03.319Z,1000
2017-10-23T15:50:02.885Z,873
2017-10-23T15:55:03.411Z,926
2017-10-23T16:00:02.935Z,786
2017-10-23T16:05:02.486Z,655
2017-10-23T16:10:03.133Z,577
2017-10-23T16:15:02.571Z,321
2017-10-23T16:20:03.052Z,190
2017-10-23T16:25:02.466Z,76
2017-10-23T16:30:03.020Z,60
2017-10-23T16:35:02.466Z,39
2017-10-23T16:40:03.060Z,23
2017-10-23T16:45:02.602Z,14
2017-10-23T16:50:03.158Z,7
2017-10-23T16:55:02.542Z,2
2017-10-23T17:00:02.982Z,1
2017-10-23T17:05:02.573Z,0
2017-10-23T17:10:03.158Z,0
2017-10-23T17:15:02.598Z,0
2017-10-23T17:20:03.205Z,0
2017-10-23T17:25:02.686Z,0
2017-10-23T17:30:03.298Z,0
2017-10-23T17:35:02.869Z,0
2017-10-23T17:40:03.362Z,0
2017-10-23T17:45:02.980Z,0
2017-10-23T17:50:02.549Z,0
2017-10-23T17:55:02.947Z,0
2017-10-23T18:00:03.381Z,0
2017-10-23T18:05:02.851Z,0
2017-10-23T18:10:03.396Z,0
2017-10-23T18:15:02.881Z,0
2017-10-23T18:20:02.517Z,0
2017-10-23T18:25:02.906Z,0
2017-10-23T18:30:03.437Z,0
2017-10-23T18:35:03.030Z,0
2017-10-23T18:40:02.600Z,0
2017-10-23T18:45:02.975Z,0
2017-10-23T18:50:02.562Z,0
2017-10-23T18:55:02.977Z,0
2017-10-23T19:00:03.369Z,0
2017-10-23T19:05:02.949Z,0
2017-10-23T19:10:03.396Z,0
2017-10-23T19:15:02.838Z,0
2017-10-23T19:20:03.348Z,0
2017-10-23T19:25:02.832Z,0
2017-10-23T19:30:03.410Z,0
2017-10-23T19:35:02.794Z,0
2017-10-23T19:40:02.455Z,0
2017-10-23T19:45:02.923Z,0
2017-10-23T19:50:02.558Z,0
2017-10-23T19:55:03.167Z,0
2017-10-23T20:00:02.598Z,0
2017-10-23T20:05:03.215Z,0
2017-10-23T20:10:02.870Z,0
2017-10-23T20:15:03.394Z,0
2017-10-23T20:20:02.810Z,0
2017-10-23T20:25:03.418Z,0
2017-10-23T20:30:03.021Z,0
2017-10-23T20:35:02.499Z,0
2017-10-23T20:40:03.087Z,0
2017-10-23T20:45:02.689Z,0
2017-10-23T20:50:03.237Z,0
2017-10-23T20:55:02.723Z,0
2017-10-23T21:00:03.143Z,0
2017-10-23T21:05:02.667Z,0
2017-10-23T21:10:03.315Z,0
2017-10-23T21:15:02.741Z,0
2017-10-23T21:20:03.152Z,0
2017-10-23T21:25:02.544Z,0
2017-10-23T21:30:03.216Z,0
2017-10-23T21:35:02.653Z,0
2017-10-23T21:40:03.271Z,0
2017-10-23T21:45:02.828Z,0
2017-10-23T21:50:03.366Z,0
2017-10-23T21:55:02.767Z,0
2017-10-23T22:00:03.347Z,0
2017-10-23T22:05:02.748Z,0
2017-10-23T22:10:03.177Z,0
2017-10-23T22:15:02.714Z,0
2017-10-23T22:20:03.293Z,0
2017-10-23T22:25:02.669Z,0
2017-10-23T22:30:03.221Z,0
2017-10-23T22:35:02.781Z,0
2017-10-23T22:40:02.459Z,0
2017-10-23T22:45:02.943Z,0
2017-10-23T22:50:02.422Z,0
2017-10-23T22:55:02.920Z,0
2017-10-23T23:00:04.132Z,0
2017-10-23T23:05:02.897Z,0
2017-10-23T23:10:02.474Z,0
2017-10-23T23:15:03.038Z,0
2017-10-23T23:20:03.404Z,0
2017-10-23T23:25:02.801Z,0
2017-10-23T23:30:02.477Z,0
2017-10-23T23:35:03.045Z,0
2017-10-23T23:40:02.540Z,0
2017-10-23T23:45:03.203Z,0
2017-10-23T23:50:02.724Z,0
2017-10-23T23:55:03.374Z,0
